createdAt,value
2023-03-21T00:00:42.971Z,71.79
2023-03-21T00:03:09.467Z,71.71
2023-03-21T00:05:42.992Z,71.64
2023-03-21T00:08:09.656Z,71.53
2023-03-21T00:10:42.085Z,71.38
2023-03-21T00:13:15.322Z,71.51
2023-03-21T00:16:04.233Z,71.34
2023-03-21T00:18:32.009Z,71.34
2023-03-21T00:21:35.572Z,71.66
2023-03-21T00:23:49.640Z,71.27
2023-03-21T00:26:17.203Z,71.16
2023-03-21T00:28:44.020Z,71.16
2023-03-21T00:31:11.093Z,71.19
2023-03-21T00:33:39.522Z,70.99
2023-03-21T00:36:07.701Z,71.04
2023-03-21T00:38:34.996Z,70.97
2023-03-21T00:41:18.829Z,70.81
2023-03-21T00:43:51.998Z,70.59
2023-03-21T00:46:18.757Z,70.70
2023-03-21T00:48:46.039Z,70.63
2023-03-21T00:51:15.626Z,70.81
2023-03-21T00:53:42.843Z,70.44
2023-03-21T00:56:09.805Z,70.46
2023-03-21T00:58:36.469Z,70.35
2023-03-21T01:01:04.400Z,70.36
2023-03-21T01:03:31.008Z,70.23
2023-03-21T01:06:06.859Z,70.15
2023-03-21T01:08:50.438Z,70.05
2023-03-21T01:11:21.116Z,70.03
2023-03-21T01:13:54.886Z,70.14
2023-03-21T01:16:27.329Z,69.87
2023-03-21T01:18:53.990Z,69.82
2023-03-21T01:21:20.639Z,69.93
2023-03-21T01:23:47.956Z,69.96
2023-03-21T01:26:15.417Z,69.98
2023-03-21T01:28:43.329Z,69.72
2023-03-21T01:31:15.280Z,69.50
2023-03-21T01:33:41.937Z,69.68
2023-03-21T01:36:13.249Z,69.71
2023-03-21T01:38:41.415Z,69.72
2023-03-21T01:41:18.610Z,69.64
2023-03-21T01:43:46.075Z,69.69
2023-03-21T01:46:12.472Z,69.63
2023-03-21T01:48:42.172Z,69.60
2023-03-21T01:51:11.504Z,69.67
2023-03-21T01:53:39.214Z,69.56
2023-03-21T01:56:13.957Z,69.70
2023-03-21T01:58:42.148Z,69.55
2023-03-21T02:01:10.006Z,69.48
2023-03-21T02:03:38.497Z,69.58
2023-03-21T02:06:15.252Z,69.61
2023-03-21T02:08:41.903Z,69.71
2023-03-21T02:11:09.983Z,69.57
2023-03-21T02:13:36.391Z,69.71
2023-03-21T02:16:13.410Z,69.57
2023-03-21T02:18:39.798Z,69.34
2023-03-21T02:21:36.607Z,69.75
2023-03-21T02:24:26.322Z,69.63
2023-03-21T02:27:21.743Z,69.73
2023-03-21T02:30:29.621Z,69.79
2023-03-21T02:33:01.272Z,69.39
2023-03-21T02:35:54.534Z,69.66
2023-03-21T02:38:38.759Z,69.55
2023-03-21T02:41:17.997Z,69.65
2023-03-21T02:43:53.979Z,69.77
2023-03-21T02:46:42.884Z,69.79
2023-03-21T02:49:43.357Z,69.71
2023-03-21T02:52:28.259Z,69.63
2023-03-21T02:55:00.976Z,69.75
2023-03-21T02:57:40.053Z,69.65
2023-03-21T03:00:16.486Z,69.74
2023-03-21T03:02:43.567Z,69.59
2023-03-21T03:05:25.618Z,69.83
2023-03-21T03:08:36.207Z,70.18
2023-03-21T03:11:18.995Z,69.83
2023-03-21T03:13:48.278Z,69.43
2023-03-21T03:16:39.005Z,69.78
2023-03-21T03:19:11.009Z,69.93
2023-03-21T03:21:44.053Z,70.10
2023-03-21T03:24:31.663Z,70.27
2023-03-21T03:27:04.001Z,69.90
2023-03-21T03:29:34.081Z,69.91
2023-03-21T03:32:21.236Z,70.48
2023-03-21T03:34:51.615Z,70.13
2023-03-21T03:37:26.173Z,70.44
2023-03-21T03:40:27.780Z,70.93
2023-03-21T03:42:58.975Z,70.45
2023-03-21T03:45:35.578Z,71.12
2023-03-21T03:48:05.948Z,70.45
2023-03-21T03:50:44.757Z,71.06
2023-03-21T03:53:18.317Z,70.78
2023-03-21T03:55:45.988Z,70.59
2023-03-21T03:58:21.680Z,70.63
2023-03-21T04:00:51.917Z,71.13
2023-03-21T04:03:18.604Z,70.82
2023-03-21T04:05:47.731Z,71.23
2023-03-21T04:08:16.549Z,71.39
2023-03-21T04:10:43.849Z,71.45
2023-03-21T04:13:10.722Z,71.23
2023-03-21T04:15:37.467Z,71.71
2023-03-21T04:18:03.986Z,71.93
2023-03-21T04:20:37.048Z,71.89
2023-03-21T04:23:04.343Z,72.02
2023-03-21T04:25:34.691Z,72.58
2023-03-21T04:28:01.359Z,72.24
2023-03-21T04:30:27.684Z,72.38
2023-03-21T04:32:56.636Z,72.58
2023-03-21T04:35:24.336Z,72.74
2023-03-21T04:37:50.742Z,72.58
2023-03-21T04:40:19.977Z,72.76
2023-03-21T04:42:47.796Z,72.68
2023-03-21T04:45:15.765Z,72.74
2023-03-21T04:47:42.640Z,72.79
2023-03-21T04:50:10.805Z,72.84
2023-03-21T04:52:37.311Z,72.79
2023-03-21T04:55:04.089Z,72.99
2023-03-21T04:57:30.976Z,72.83
2023-03-21T04:59:57.335Z,72.86
2023-03-21T05:02:23.693Z,72.63
2023-03-21T05:04:50.144Z,72.69
2023-03-21T05:07:16.526Z,72.69
2023-03-21T05:09:42.906Z,72.81
2023-03-21T05:12:09.225Z,72.61
2023-03-21T05:14:35.589Z,72.91
2023-03-21T05:17:05.257Z,72.87
2023-03-21T05:19:35.832Z,72.90
2023-03-21T05:22:05.479Z,72.97
2023-03-21T05:24:33.175Z,72.82
2023-03-21T05:27:01.979Z,72.83
2023-03-21T05:29:31.413Z,73.06
2023-03-21T05:31:59.301Z,73.08
2023-03-21T05:34:27.008Z,72.96
2023-03-21T05:36:53.948Z,73.01
2023-03-21T05:39:21.030Z,73.09
2023-03-21T05:41:47.573Z,72.75
2023-03-21T05:44:13.910Z,73.09
2023-03-21T05:46:40.248Z,73.00
2023-03-21T05:49:06.575Z,73.14
2023-03-21T05:51:32.957Z,73.17
2023-03-21T05:53:59.303Z,73.00
2023-03-21T05:56:25.772Z,73.14
2023-03-21T05:58:52.117Z,73.07
2023-03-21T06:01:18.835Z,73.49
2023-03-21T06:03:45.461Z,73.37
2023-03-21T06:06:11.806Z,73.45
2023-03-21T06:08:38.188Z,73.46
2023-03-21T06:11:23.263Z,74.36
2023-03-21T06:13:49.828Z,73.60
2023-03-21T06:16:16.364Z,73.53
2023-03-21T06:18:42.761Z,73.65
2023-03-21T06:21:09.114Z,73.79
2023-03-21T06:23:36.621Z,73.73
2023-03-21T06:26:04.060Z,73.62
2023-03-21T06:28:31.948Z,73.61
2023-03-21T06:30:58.533Z,73.56
2023-03-21T06:33:25.872Z,73.72
2023-03-21T06:35:57.438Z,73.90
2023-03-21T06:38:25.151Z,73.72
2023-03-21T06:40:51.963Z,73.57
2023-03-21T06:43:18.538Z,73.79
2023-03-21T06:45:45.272Z,73.50
2023-03-21T06:48:12.330Z,73.58
2023-03-21T06:50:38.932Z,73.40
2023-03-21T06:53:05.349Z,73.35
2023-03-21T06:55:31.819Z,73.14
2023-03-21T06:57:59.229Z,73.22
2023-03-21T07:00:25.970Z,73.14
2023-03-21T07:02:53.733Z,73.12
2023-03-21T07:05:20.391Z,73.10
2023-03-21T07:07:46.835Z,73.13
2023-03-21T07:10:13.264Z,73.10
2023-03-21T07:12:39.642Z,73.00
2023-03-21T07:15:07.390Z,73.18
2023-03-21T07:17:33.814Z,73.10
2023-03-21T07:20:00.240Z,73.15
2023-03-21T07:22:26.709Z,73.31
2023-03-21T07:25:04.094Z,73.10
2023-03-21T07:27:32.048Z,73.36
2023-03-21T07:29:58.500Z,73.22
2023-03-21T07:32:29.712Z,73.46
2023-03-21T07:34:56.223Z,73.70
2023-03-21T07:37:23.899Z,73.71
2023-03-21T07:39:51.336Z,73.92
2023-03-21T07:42:18.081Z,73.96
2023-03-21T07:44:45.884Z,74.03
2023-03-21T07:47:12.370Z,74.03
2023-03-21T07:49:38.820Z,73.88
2023-03-21T07:52:06.668Z,74.08
2023-03-21T07:54:33.376Z,74.15
2023-03-21T07:56:59.992Z,74.42
2023-03-21T07:59:26.628Z,74.42
2023-03-21T08:01:53.051Z,74.57
2023-03-21T08:04:19.826Z,74.72
2023-03-21T08:06:46.245Z,74.96
2023-03-21T08:09:19.599Z,75.43
2023-03-21T08:11:45.996Z,75.12
2023-03-21T08:14:12.548Z,75.41
2023-03-21T08:16:38.995Z,75.23
2023-03-21T08:19:05.823Z,75.68
2023-03-21T08:21:32.185Z,75.51
2023-03-21T08:23:58.684Z,75.52
2023-03-21T08:26:26.408Z,75.90
2023-03-21T08:28:52.914Z,75.77
2023-03-21T08:31:21.685Z,75.74
2023-03-21T08:33:51.032Z,75.70
2023-03-21T08:36:17.479Z,75.92
2023-03-21T08:38:45.960Z,75.86
2023-03-21T08:41:12.528Z,75.99
2023-03-21T08:43:38.908Z,76.20
2023-03-21T08:46:05.801Z,76.31
2023-03-21T08:48:32.605Z,76.25
2023-03-21T08:51:01.834Z,76.66
2023-03-21T08:53:28.249Z,76.71
2023-03-21T08:55:54.733Z,76.91
2023-03-21T08:58:21.184Z,76.93
2023-03-21T09:00:48.241Z,77.04
2023-03-21T09:03:14.619Z,77.21
2023-03-21T09:05:41.324Z,77.28
2023-03-21T09:08:07.708Z,77.15
2023-03-21T09:10:34.179Z,77.12
2023-03-21T09:13:00.658Z,77.22
2023-03-21T09:15:29.720Z,77.10
2023-03-21T09:17:58.294Z,77.33
2023-03-21T09:20:30.505Z,77.33
2023-03-21T09:22:58.238Z,76.96
2023-03-21T09:25:24.964Z,77.18
2023-03-21T09:27:51.554Z,76.78
2023-03-21T09:30:22.292Z,76.90
2023-03-21T09:32:50.343Z,76.90
2023-03-21T09:35:18.764Z,76.89
2023-03-21T09:37:47.212Z,76.89
2023-03-21T09:40:23.432Z,76.92
2023-03-21T09:43:15.455Z,76.88
2023-03-21T09:45:58.634Z,76.99
2023-03-21T09:48:34.963Z,76.95
2023-03-21T09:51:05.220Z,77.09
2023-03-21T09:53:40.022Z,77.05
2023-03-21T09:56:13.200Z,77.08
2023-03-21T09:58:46.145Z,77.24
2023-03-21T10:01:41.879Z,77.60
2023-03-21T10:04:12.929Z,77.39
2023-03-21T10:06:42.990Z,77.36
2023-03-21T10:09:25.732Z,77.25
2023-03-21T10:12:07.304Z,77.11
2023-03-21T10:14:48.347Z,77.04
2023-03-21T10:17:25.600Z,76.91
2023-03-21T10:20:21.476Z,76.89
2023-03-21T10:22:50.429Z,76.70
2023-03-21T10:25:33.102Z,76.84
2023-03-21T10:28:00.745Z,76.91
2023-03-21T10:30:40.527Z,76.78
2023-03-21T10:33:11.921Z,76.90
2023-03-21T10:35:44.833Z,76.77
2023-03-21T10:38:17.895Z,76.94
2023-03-21T10:40:44.290Z,76.84
2023-03-21T10:43:16.962Z,76.61
2023-03-21T10:48:17.341Z,77.24
2023-03-21T10:50:47.964Z,77.29
2023-03-21T10:53:27.554Z,77.31
2023-03-21T10:55:57.558Z,77.54
2023-03-21T10:58:33.298Z,77.61
2023-03-21T11:01:04.861Z,77.46
2023-03-21T11:03:36.796Z,77.69
2023-03-21T11:06:11.650Z,77.82
2023-03-21T11:08:47.259Z,77.82
2023-03-21T11:11:21.509Z,77.60
2023-03-21T11:13:56.852Z,77.59
2023-03-21T11:16:30.566Z,77.53
2023-03-21T11:19:02.390Z,77.65
2023-03-21T11:21:36.621Z,77.69
2023-03-21T11:24:04.806Z,77.76
2023-03-21T11:26:37.545Z,77.59
2023-03-21T11:29:40.590Z,77.92
2023-03-21T11:32:13.489Z,77.97
2023-03-21T11:34:53.343Z,78.01
2023-03-21T11:37:37.657Z,77.87
2023-03-21T11:40:18.189Z,77.68
2023-03-21T11:42:48.111Z,77.56
2023-03-21T11:45:18.452Z,77.50
2023-03-21T11:47:46.441Z,77.55
2023-03-21T11:50:35.143Z,77.98
2023-03-21T11:53:38.290Z,77.11
2023-03-21T11:56:26.521Z,77.05
2023-03-21T11:59:04.960Z,77.42
2023-03-21T12:01:35.451Z,77.26
2023-03-21T12:04:01.879Z,77.46
2023-03-21T12:06:37.529Z,77.35
2023-03-21T12:09:25.380Z,77.00
2023-03-21T12:12:01.139Z,76.67
2023-03-21T12:14:30.380Z,76.62
2023-03-21T12:17:09.801Z,76.44
2023-03-21T12:19:51.454Z,76.63
2023-03-21T12:22:43.863Z,76.92
2023-03-21T12:25:25.003Z,77.03
2023-03-21T12:28:06.600Z,77.06
2023-03-21T12:30:47.472Z,77.00
2023-03-21T12:33:44.108Z,76.77
2023-03-21T12:36:25.540Z,76.52
2023-03-21T12:39:04.336Z,76.62
2023-03-21T12:41:55.767Z,76.82
2023-03-21T12:44:26.304Z,77.05
2023-03-21T12:47:02.197Z,76.68
2023-03-21T12:50:15.526Z,76.33
2023-03-21T12:52:45.026Z,76.39
2023-03-21T12:55:21.898Z,76.60
2023-03-21T12:58:14.373Z,76.67
2023-03-21T13:00:47.529Z,76.74
2023-03-21T13:03:13.929Z,76.83
2023-03-21T13:05:48.605Z,77.94
2023-03-21T13:08:24.678Z,77.29
2023-03-21T13:10:51.077Z,77.60
2023-03-21T13:13:31.874Z,77.29
2023-03-21T13:16:17.860Z,75.83
2023-03-21T13:19:00.756Z,75.87
2023-03-21T13:21:52.070Z,76.09
2023-03-21T13:24:33.867Z,75.79
2023-03-21T13:27:04.086Z,75.51
2023-03-21T13:29:50.368Z,75.72
2023-03-21T13:32:30.884Z,75.33
2023-03-21T13:35:00.299Z,75.61
2023-03-21T13:37:34.834Z,74.97
2023-03-21T13:40:12.750Z,75.23
2023-03-21T13:42:51.011Z,75.27
2023-03-21T13:45:45.174Z,75.20
2023-03-21T13:48:28.466Z,74.10
2023-03-21T13:51:01.069Z,73.44
2023-03-21T13:53:38.925Z,73.28
2023-03-21T13:56:16.013Z,73.74
2023-03-21T13:58:48.249Z,74.18
2023-03-21T14:01:30.599Z,73.91
2023-03-21T14:04:23.988Z,73.95
2023-03-21T14:06:59.191Z,74.12
2023-03-21T14:09:36.054Z,74.08
2023-03-21T14:12:07.826Z,74.92
2023-03-21T14:14:40.367Z,74.08
2023-03-21T14:17:23.861Z,73.90
2023-03-21T14:20:16.209Z,73.71
2023-03-21T14:22:42.767Z,74.29
2023-03-21T14:25:14.686Z,73.93
2023-03-21T14:27:55.214Z,72.74
2023-03-21T14:30:26.090Z,73.91
2023-03-21T14:33:03.363Z,73.60
2023-03-21T14:35:34.074Z,74.08
2023-03-21T14:38:07.205Z,73.75
2023-03-21T14:40:33.540Z,73.04
2023-03-21T14:43:05.112Z,73.28
2023-03-21T14:48:35.896Z,73.68
2023-03-21T14:51:05.926Z,73.70
2023-03-21T14:53:37.662Z,73.53
2023-03-21T14:56:14.792Z,72.25
2023-03-21T14:58:44.447Z,73.94
2023-03-21T15:01:21.311Z,73.62
2023-03-21T15:03:51.281Z,73.23
2023-03-21T15:06:17.819Z,73.86
2023-03-21T15:08:55.776Z,72.98
2023-03-21T15:11:34.125Z,72.92
2023-03-21T15:14:04.795Z,73.34
2023-03-21T15:16:31.897Z,73.43
2023-03-21T15:18:59.722Z,73.10
2023-03-21T15:21:38.411Z,72.05
2023-03-21T15:24:33.907Z,71.91
2023-03-21T15:27:03.873Z,72.31
2023-03-21T15:29:31.289Z,73.13
2023-03-21T15:31:59.072Z,72.97
2023-03-21T15:34:29.306Z,72.20
2023-03-21T15:37:07.726Z,72.18
2023-03-21T15:39:36.287Z,72.85
2023-03-21T15:42:06.197Z,72.68
2023-03-21T15:44:35.028Z,72.74
2023-03-21T15:47:01.953Z,72.91
2023-03-21T15:49:33.831Z,71.84
2023-03-21T15:52:06.588Z,71.78
2023-03-21T15:54:44.425Z,67.81
2023-03-21T15:57:25.888Z,67.71
2023-03-21T16:00:35.864Z,66.75
2023-03-21T16:03:26.293Z,68.58
2023-03-21T16:06:12.617Z,67.79
2023-03-21T16:08:45.869Z,67.41
2023-03-21T16:11:24.856Z,68.09
2023-03-21T16:13:52.993Z,69.56
2023-03-21T16:16:22.317Z,68.59
2023-03-21T16:18:49.179Z,69.15
2023-03-21T16:21:18.344Z,68.30
2023-03-21T16:23:45.882Z,68.56
2023-03-21T16:26:16.520Z,67.68
2023-03-21T16:28:44.254Z,67.12
2023-03-21T16:31:21.105Z,63.07
2023-03-21T16:33:48.798Z,66.59
2023-03-21T16:36:25.613Z,63.84
2023-03-21T16:38:53.980Z,65.66
2023-03-21T16:41:22.282Z,65.42
2023-03-21T16:43:49.075Z,65.27
2023-03-21T16:46:24.319Z,64.51
2023-03-21T16:48:53.779Z,64.57
2023-03-21T16:51:34.898Z,61.84
2023-03-21T16:54:02.401Z,65.05
2023-03-21T16:56:50.396Z,62.27
2023-03-21T16:59:17.295Z,65.57
2023-03-21T17:01:46.090Z,65.33
2023-03-21T17:04:13.135Z,65.40
2023-03-21T17:06:44.682Z,65.38
2023-03-21T17:09:13.507Z,65.39
2023-03-21T17:11:41.520Z,65.66
2023-03-21T17:14:10.089Z,65.73
2023-03-21T17:16:37.341Z,66.03
2023-03-21T17:19:11.815Z,65.17
2023-03-21T17:21:38.226Z,65.80
2023-03-21T17:24:04.779Z,66.13
2023-03-21T17:26:31.161Z,66.11
2023-03-21T17:28:57.771Z,66.00
2023-03-21T17:31:26.544Z,65.58
2023-03-21T17:33:53.023Z,66.09
2023-03-21T17:36:24.655Z,65.63
2023-03-21T17:38:52.758Z,66.42
2023-03-21T17:41:20.480Z,66.00
2023-03-21T17:43:47.464Z,66.21
2023-03-21T17:46:16.662Z,66.33
2023-03-21T17:48:44.458Z,66.29
2023-03-21T17:51:14.692Z,66.50
2023-03-21T17:53:45.880Z,66.59
2023-03-21T17:56:20.114Z,65.13
2023-03-21T17:58:47.167Z,66.57
2023-03-21T18:01:14.130Z,66.35
2023-03-21T18:03:41.082Z,66.48
2023-03-21T18:06:19.550Z,65.57
2023-03-21T18:08:49.793Z,66.46
2023-03-21T18:11:16.912Z,66.64
2023-03-21T18:13:47.504Z,66.45
2023-03-21T18:16:22.624Z,65.57
2023-03-21T18:18:50.827Z,66.30
2023-03-21T18:21:20.251Z,66.69
2023-03-21T18:23:47.270Z,66.47
2023-03-21T18:26:17.638Z,66.08
2023-03-21T18:28:44.172Z,66.34
2023-03-21T18:31:19.249Z,65.96
2023-03-21T18:33:48.095Z,66.37
2023-03-21T18:36:24.538Z,66.10
2023-03-21T18:38:51.996Z,66.65
2023-03-21T18:41:19.605Z,66.59
2023-03-21T18:44:05.541Z,66.84
2023-03-21T18:46:33.008Z,66.99
2023-03-21T18:49:19.969Z,66.85
2023-03-21T18:51:46.963Z,66.57
2023-03-21T18:54:13.556Z,66.93
2023-03-21T18:59:27.036Z,66.85
2023-03-21T19:01:53.691Z,67.01
2023-03-21T19:04:25.598Z,66.86
2023-03-21T19:06:58.315Z,66.27
2023-03-21T19:09:29.652Z,66.72
2023-03-21T19:11:58.326Z,66.84
2023-03-21T19:14:24.723Z,66.67
2023-03-21T19:19:38.625Z,67.12
2023-03-21T19:22:05.024Z,67.10
2023-03-21T19:24:31.401Z,67.27
2023-03-21T19:26:57.910Z,67.83
2023-03-21T19:29:25.618Z,67.67
2023-03-21T19:31:52.245Z,67.62
2023-03-21T19:34:19.404Z,67.83
2023-03-21T19:36:51.433Z,67.80
2023-03-21T19:39:21.860Z,67.95
2023-03-21T19:41:48.557Z,67.85
2023-03-21T19:44:14.883Z,68.02
2023-03-21T19:46:41.265Z,68.22
2023-03-21T19:49:07.589Z,68.24
2023-03-21T19:51:34.294Z,68.38
2023-03-21T19:54:04.487Z,68.32
2023-03-21T19:56:31.918Z,68.47
2023-03-21T19:58:58.915Z,68.46
2023-03-21T20:01:26.008Z,68.63
2023-03-21T20:03:52.592Z,68.66
2023-03-21T20:06:22.096Z,68.58
2023-03-21T20:11:34.872Z,68.58
2023-03-21T20:14:03.123Z,68.92
2023-03-21T20:16:35.001Z,68.76
2023-03-21T20:19:03.419Z,68.56
2023-03-21T20:21:36.630Z,68.70
2023-03-21T20:24:11.328Z,68.73
2023-03-21T20:26:37.971Z,68.91
2023-03-21T20:29:46.995Z,68.86
2023-03-21T20:31:53.013Z,68.95
2023-03-21T20:34:19.319Z,68.74
2023-03-21T20:36:45.801Z,69.25
2023-03-21T20:39:12.213Z,69.14
2023-03-21T20:41:39.679Z,69.38
2023-03-21T20:44:41.765Z,69.72
2023-03-21T20:49:25.002Z,70.05
2023-03-21T20:54:38.535Z,70.16
2023-03-21T20:57:05.236Z,70.28
2023-03-21T20:59:37.804Z,70.36
2023-03-21T21:02:05.370Z,70.58
2023-03-21T21:04:49.742Z,70.70
2023-03-21T21:07:22.950Z,70.82
2023-03-21T21:09:50.124Z,70.88
2023-03-21T21:12:19.383Z,71.10
2023-03-21T21:14:47.772Z,71.18
2023-03-21T21:17:31.181Z,71.12
2023-03-21T21:20:10.602Z,71.18
2023-03-21T21:22:39.048Z,71.45
2023-03-21T21:25:06.590Z,71.47
2023-03-21T21:27:33.053Z,71.58
2023-03-21T21:29:59.940Z,71.85
2023-03-21T21:32:26.512Z,72.21
2023-03-21T21:34:53.300Z,72.35
2023-03-21T21:37:20.014Z,72.69
2023-03-21T21:39:46.700Z,72.81
2023-03-21T21:42:13.227Z,72.90
2023-03-21T21:44:44.214Z,72.96
2023-03-21T21:47:12.263Z,72.77
2023-03-21T21:49:39.183Z,72.78
2023-03-21T21:52:05.680Z,72.57
2023-03-21T21:54:34.229Z,72.43
2023-03-21T21:57:01.275Z,72.51
2023-03-21T21:59:28.016Z,72.51
2023-03-21T22:01:54.738Z,72.60
2023-03-21T22:04:27.714Z,72.43
2023-03-21T22:06:56.969Z,71.64
2023-03-21T22:09:23.707Z,72.37
2023-03-21T22:11:50.363Z,72.32
2023-03-21T22:14:16.948Z,72.29
2023-03-21T22:16:44.070Z,72.46
2023-03-21T22:19:10.680Z,72.56
2023-03-21T22:21:37.156Z,72.50
2023-03-21T22:24:03.984Z,72.58
2023-03-21T22:26:30.644Z,72.56
2023-03-21T22:28:57.992Z,72.62
2023-03-21T22:31:25.955Z,72.69
2023-03-21T22:33:52.633Z,72.70
2023-03-21T22:36:20.112Z,72.89
2023-03-21T22:38:47.807Z,72.95
2023-03-21T22:41:14.549Z,73.39
2023-03-21T22:43:41.127Z,73.13
2023-03-21T22:46:07.635Z,73.23
2023-03-21T22:48:34.769Z,73.17
2023-03-21T22:51:01.428Z,73.21
2023-03-21T22:53:28.463Z,73.31
2023-03-21T22:55:58.337Z,73.20
2023-03-21T22:58:24.886Z,73.61
2023-03-21T23:00:51.887Z,73.85
2023-03-21T23:03:18.759Z,73.91
2023-03-21T23:05:45.700Z,73.77
2023-03-21T23:08:13.024Z,73.85
2023-03-21T23:10:41.443Z,73.89
2023-03-21T23:13:08.273Z,73.61
2023-03-21T23:15:34.795Z,73.68
2023-03-21T23:18:01.418Z,73.70
2023-03-21T23:20:28.044Z,73.42
2023-03-21T23:22:54.766Z,73.25
2023-03-21T23:25:21.705Z,73.05
2023-03-21T23:27:48.428Z,72.82
2023-03-21T23:30:15.260Z,72.87
2023-03-21T23:32:42.638Z,72.83
2023-03-21T23:35:10.201Z,72.70
2023-03-21T23:37:36.986Z,72.82
2023-03-21T23:40:06.220Z,72.89
2023-03-21T23:42:34.292Z,72.95
2023-03-21T23:45:00.986Z,72.80
2023-03-21T23:47:27.819Z,72.96
2023-03-21T23:49:54.463Z,73.05
2023-03-21T23:52:21.447Z,73.27
2023-03-21T23:54:48.125Z,73.35
2023-03-21T23:57:14.700Z,73.34
2023-03-21T23:59:41.191Z,73.27
